Time;durP1;ratioP1;P1;durP2;ratioP2;P2;SDS_P1;SDS_P2;PMS_P1;PMS_P2;Temp;Humidity;BMP_temperature;BMP_pressure;BME280_temperature;BME280_humidity;BME280_pressure;Samples;Min_cycle;Max_cycle;Signal;HPM_P1;HPM_P2
2023/05/27 00:00:55;;;;;;;8.20;5.60;;;;;;;18.90;85.31;99112.84;79749;1293;3011626;-62
2023/05/27 00:03:23;;;;;;;8.90;5.70;;;;;;;19.20;83.61;99111.42;78521;1295;3068106;-66
2023/05/27 00:05:50;;;;;;;13.70;6.90;;;;;;;19.13;83.52;99111.22;79678;1288;3013327;-62
2023/05/27 00:08:17;;;;;;;12.50;7.60;;;;;;;18.76;84.96;99110.49;79591;1294;3011660;-66
2023/05/27 00:10:45;;;;;;;12.60;7.60;;;;;;;18.42;86.77;99114.86;78428;1289;3025444;-66
2023/05/27 00:13:12;;;;;;;10.80;6.30;;;;;;;18.20;88.47;99115.09;79805;1292;3018727;-61
2023/05/27 00:15:40;;;;;;;14.20;7.50;;;;;;;18.59;87.67;99113.23;79637;1291;3011651;-63
2023/05/27 00:18:09;;;;;;;16.50;7.80;;;;;;;18.66;86.77;99107.92;78567;1289;3068977;-64
2023/05/27 00:20:36;;;;;;;15.10;8.50;;;;;;;18.58;86.54;99105.83;79768;1292;3016039;-64
2023/05/27 00:23:02;;;;;;;17.40;9.70;;;;;;;18.32;87.58;99102.63;79685;1288;3011547;-60
2023/05/27 00:25:31;;;;;;;10.00;6.10;;;;;;;18.15;88.80;99098.89;78576;1294;3053533;-65
2023/05/27 00:27:58;;;;;;;18.70;6.90;;;;;;;18.54;88.14;99092.77;79645;1289;3013638;-64
2023/05/27 00:30:25;;;;;;;9.50;6.60;;;;;;;18.78;86.25;99092.19;79892;1291;3011706;-60
2023/05/27 00:32:55;;;;;;;13.80;8.10;;;;;;;18.68;86.05;99094.07;78421;1294;3067341;-68
2023/05/27 00:35:22;;;;;;;14.40;8.00;;;;;;;18.46;86.89;99090.54;79709;1288;3011638;-70
2023/05/27 00:37:48;;;;;;;11.40;8.00;;;;;;;18.27;87.88;99089.97;79637;1290;3011559;-62
2023/05/27 00:40:19;;;;;;;9.90;5.20;;;;;;;18.05;88.77;99088.32;78455;1294;3054747;-65
2023/05/27 00:42:46;;;;;;;15.80;6.40;;;;;;;18.50;87.31;99089.44;79656;1291;3012936;-65
2023/05/27 00:45:15;;;;;;;11.50;6.50;;;;;;;18.78;85.73;99085.63;79189;1294;3011667;-60
2023/05/27 00:47:41;;;;;;;10.40;6.70;;;;;;;18.77;85.01;99082.64;80024;1290;3012863;-64
2023/05/27 00:50:08;;;;;;;13.70;8.00;;;;;;;18.58;85.38;99084.77;79758;1291;3011865;-67
2023/05/27 00:52:37;;;;;;;14.90;7.30;;;;;;;18.45;86.09;99086.75;78425;1294;3057103;-63
2023/05/27 00:55:05;;;;;;;7.20;4.40;;;;;;;18.30;86.63;99084.17;79792;1294;3012021;-59
2023/05/27 00:57:33;;;;;;;7.50;5.20;;;;;;;18.75;85.55;99083.29;79687;1288;3011816;-69
2023/05/27 01:00:01;;;;;;;8.10;5.40;;;;;;;19.18;83.00;99082.98;78531;1294;3052650;-64
2023/05/27 01:02:27;;;;;;;8.40;6.00;;;;;;;19.13;82.75;99080.02;79671;1295;3013576;-65
2023/05/27 01:04:54;;;;;;;10.80;6.20;;;;;;;18.90;82.97;99073.81;79674;1288;3012863;-65
2023/05/27 01:08:05;;;;;;;9.10;7.00;;;;;;;18.63;84.08;99072.59;78485;1289;3026833;-65
2023/05/27 01:10:40;;;;;;;19.50;7.50;;;;;;;18.30;85.86;99077.63;78254;1292;3049259;-62
2023/05/27 01:13:31;;;;;;;6.90;4.60;;;;;;;18.03;87.40;99076.52;78272;1288;3053105;-67
2023/05/27 01:16:04;;;;;;;10.50;5.10;;;;;;;18.57;85.89;99075.47;78588;1289;3050275;-63
2023/05/27 01:18:31;;;;;;;10.40;5.70;;;;;;;18.91;83.82;99069.27;79708;1294;3011912;-62
2023/05/27 01:21:05;;;;;;;12.00;8.10;;;;;;;18.91;82.86;99064.46;78406;1295;3051458;-63
2023/05/27 01:23:32;;;;;;;12.00;8.70;;;;;;;18.69;83.36;99064.71;79643;1288;3011618;-61
2023/05/27 01:26:00;;;;;;;12.00;8.70;;;;;;;18.50;84.08;99065.99;78406;1294;3051658;-67
2023/05/27 01:28:27;;;;;;;12.50;5.90;;;;;;;18.34;85.26;99068.16;79729;1289;3013635;-63
2023/05/27 01:30:54;;;;;;;8.80;6.20;;;;;;;18.67;84.54;99060.44;79622;1291;3013656;-67
2023/05/27 01:33:24;;;;;;;14.30;7.50;;;;;;;19.01;82.57;99064.51;78436;1293;3049784;-63
2023/05/27 01:35:54;;;;;;;12.40;7.50;;;;;;;18.94;82.28;99067.90;79653;1293;3013092;-65
2023/05/27 01:38:23;;;;;;;13.60;8.00;;;;;;;18.85;82.94;99067.88;78488;1292;3025740;-68
2023/05/27 01:40:50;;;;;;;13.40;8.20;;;;;;;18.70;83.30;99065.58;79693;1289;3013489;-62
2023/05/27 01:43:17;;;;;;;9.80;5.80;;;;;;;18.51;84.24;99067.70;79636;1292;3013435;-67
2023/05/27 01:45:45;;;;;;;9.60;5.70;;;;;;;18.91;83.58;99069.63;78486;1293;3049275;-64
2023/05/27 01:48:12;;;;;;;8.40;6.20;;;;;;;19.43;81.54;99067.47;79617;1294;3013591;-67
2023/05/27 01:50:38;;;;;;;12.50;7.60;;;;;;;19.49;80.83;99066.30;79690;1294;3011460;-69
2023/05/27 01:53:07;;;;;;;12.40;7.70;;;;;;;19.27;80.69;99063.23;78447;1293;3026549;-67
2023/05/27 01:55:34;;;;;;;13.10;8.70;;;;;;;19.05;81.77;99061.02;79648;1293;3013281;-70
2023/05/27 01:58:01;;;;;;;13.80;8.90;;;;;;;18.88;82.37;99063.73;79652;1294;3011762;-70
2023/05/27 02:00:29;;;;;;;8.70;5.40;;;;;;;18.80;82.38;99065.16;78411;1295;3026760;-61
2023/05/27 02:02:56;;;;;;;9.10;6.40;;;;;;;19.30;81.39;99064.55;79777;1289;3013584;-65
2023/05/27 02:05:23;;;;;;;10.00;7.20;;;;;;;19.81;80.01;99066.95;79599;1289;3013297;-71
2023/05/27 02:07:51;;;;;;;12.50;8.00;;;;;;;19.85;79.13;99064.17;78487;1294;3051736;-62
2023/05/27 02:10:18;;;;;;;13.20;9.50;;;;;;;19.68;79.08;99062.73;79661;1294;3013334;-67
2023/05/27 02:12:44;;;;;;;14.70;10.80;;;;;;;19.44;79.74;99062.91;79567;1288;3013359;-65
2023/05/27 02:15:13;;;;;;;11.40;9.30;;;;;;;19.26;80.45;99061.56;78483;1293;3027417;-68
2023/05/27 02:17:40;;;;;;;6.60;4.80;;;;;;;19.09;81.06;99064.40;79624;1294;3020776;-69
2023/05/27 02:20:07;;;;;;;7.90;6.00;;;;;;;19.49;80.14;99061.33;79708;1294;3011793;-68
2023/05/27 02:22:37;;;;;;;10.10;5.70;;;;;;;19.92;78.45;99059.23;78518;1293;3052200;-61
2023/05/27 02:25:04;;;;;;;11.80;7.10;;;;;;;19.97;78.48;99056.16;79790;1288;3013011;-68
2023/05/27 02:27:31;;;;;;;11.70;8.20;;;;;;;19.81;78.54;99058.02;79758;1289;3011760;-65
2023/05/27 02:29:59;;;;;;;11.60;8.30;;;;;;;19.59;79.01;99060.14;78425;1293;3050160;-68
2023/05/27 02:32:26;;;;;;;14.40;9.40;;;;;;;19.22;80.10;99062.41;79641;1294;3019037;-68
2023/05/27 02:34:52;;;;;;;10.10;6.50;;;;;;;18.86;82.09;99067.76;79627;1289;3011836;-66
2023/05/27 02:37:20;;;;;;;10.60;6.60;;;;;;;19.20;81.82;99067.89;78397;1291;3028437;-67
2023/05/27 02:39:47;;;;;;;9.50;6.30;;;;;;;19.42;80.34;99067.24;79631;1294;3018381;-65
2023/05/27 02:42:15;;;;;;;12.90;7.60;;;;;;;19.17;80.70;99067.46;79665;1294;3011374;-67
2023/05/27 02:44:43;;;;;;;12.00;7.30;;;;;;;18.73;82.25;99068.17;78435;1294;3049332;-62
2023/05/27 02:47:10;;;;;;;10.50;7.80;;;;;;;18.47;83.54;99069.52;79692;1289;3013305;-70
2023/05/27 02:49:37;;;;;;;13.30;8.50;;;;;;;18.14;85.01;99070.00;79736;1288;3011937;-68
2023/05/27 02:52:05;;;;;;;8.00;5.70;;;;;;;17.90;86.77;99068.23;78387;1294;3053245;-69
2023/05/27 02:54:32;;;;;;;10.60;6.90;;;;;;;18.41;85.23;99068.68;79650;1294;3020602;-65
2023/05/27 02:56:59;;;;;;;15.40;8.50;;;;;;;18.75;83.18;99073.80;79616;1288;3013050;-65
2023/05/27 02:59:27;;;;;;;15.10;6.90;;;;;;;18.61;83.21;99069.34;78498;1293;3027525;-63
2023/05/27 03:01:53;;;;;;;11.20;8.00;;;;;;;18.47;83.97;99071.86;79682;1294;3013147;-67
2023/05/27 03:04:21;;;;;;;14.50;8.90;;;;;;;18.18;85.58;99070.83;79695;1288;3013443;-66
2023/05/27 03:06:49;;;;;;;10.40;5.40;;;;;;;17.99;86.72;99068.27;78504;1291;3053839;-67
2023/05/27 03:09:16;;;;;;;9.20;5.90;;;;;;;18.37;85.68;99068.41;79684;1294;3013070;-64
2023/05/27 03:11:44;;;;;;;11.10;6.80;;;;;;;18.65;83.88;99067.08;79652;1292;3013049;-66
2023/05/27 03:14:12;;;;;;;11.50;7.40;;;;;;;18.45;83.98;99069.21;78385;1294;3049287;-62
2023/05/27 03:18:38;;;;;;;15.10;8.20;;;;;;;18.05;86.24;99071.71;80249;1296;3013193;-63
2023/05/27 03:21:06;;;;;;;11.60;5.80;;;;;;;17.75;87.68;99078.83;79072;1301;3013216;-64
2023/05/27 03:23:32;;;;;;;10.90;6.70;;;;;;;18.06;86.88;99073.58;79047;1297;3011382;-64
2023/05/27 03:26:02;;;;;;;13.20;6.60;;;;;;;18.18;85.63;99074.52;77847;1303;3053664;-62
2023/05/27 03:28:29;;;;;;;9.50;6.80;;;;;;;18.19;85.76;99068.55;79368;1299;3012872;-63
2023/05/27 03:30:56;;;;;;;17.80;7.40;;;;;;;17.97;86.41;99072.69;77477;1301;3013532;-66
2023/05/27 03:33:33;;;;;;;12.90;7.40;;;;;;;17.73;87.79;99075.82;78338;1297;3049376;-67
2023/05/27 03:35:59;;;;;;;11.50;5.20;;;;;;;17.56;88.66;99075.92;79512;1292;3012880;-65
2023/05/27 03:38:27;;;;;;;8.80;6.30;;;;;;;17.93;88.13;99075.50;79614;1292;3012375;-63
2023/05/27 03:40:56;;;;;;;14.00;6.30;;;;;;;18.21;86.19;99077.05;78413;1297;3052844;-67
2023/05/27 03:43:23;;;;;;;11.20;5.90;;;;;;;18.06;86.22;99072.55;79610;1296;3013723;-66
2023/05/27 03:45:49;;;;;;;8.70;6.00;;;;;;;17.94;86.40;99073.88;79504;1292;3012722;-65
2023/05/27 03:48:18;;;;;;;10.90;6.10;;;;;;;17.77;86.70;99074.71;78555;1296;3025767;-64
2023/05/27 03:50:44;;;;;;;6.30;3.60;;;;;;;17.64;87.78;99075.65;79589;1292;3020687;-67
2023/05/27 03:53:13;;;;;;;7.80;4.50;;;;;;;18.19;86.15;99068.24;79664;1295;3013600;-66
2023/05/27 03:55:41;;;;;;;8.40;4.80;;;;;;;18.63;83.38;99075.38;78354;1297;3053669;-68
2023/05/27 03:58:08;;;;;;;11.90;5.20;;;;;;;18.61;82.89;99076.73;79883;1295;3018837;-61
2023/05/27 04:00:38;;;;;;;9.80;6.10;;;;;;;18.37;83.72;99075.16;79772;1292;3011667;-65
2023/05/27 04:03:08;;;;;;;9.50;5.40;;;;;;;18.27;84.59;99075.41;78577;1297;3049549;-64
2023/05/27 04:05:35;;;;;;;6.70;3.90;;;;;;;18.12;85.47;99078.46;79661;1292;3014813;-64
2023/05/27 04:08:03;;;;;;;8.00;4.50;;;;;;;18.49;84.42;99081.88;79534;1292;3011609;-70
2023/05/27 04:10:31;;;;;;;7.80;4.70;;;;;;;19.03;82.60;99085.40;78382;1291;3053290;-67
2023/05/27 04:12:57;;;;;;;10.50;5.50;;;;;;;19.09;81.75;99085.70;79518;1298;3012920;-69
2023/05/27 04:15:26;;;;;;;9.80;4.90;;;;;;;19.09;81.61;99086.47;79553;1292;3011643;-68
2023/05/27 04:17:54;;;;;;;9.70;5.20;;;;;;;19.00;81.38;99086.08;78344;1295;3049854;-65
2023/05/27 04:20:21;;;;;;;7.10;3.40;;;;;;;18.77;81.07;99083.27;79734;1292;3013919;-68
2023/05/27 04:22:54;;;;;;;6.70;4.00;;;;;;;19.26;80.35;99083.45;78493;1294;3053632;-63
2023/05/27 04:25:21;;;;;;;8.40;4.10;;;;;;;19.74;78.54;99088.57;79737;1295;3012869;-62
2023/05/27 04:28:08;;;;;;;10.60;5.10;;;;;;;19.83;77.72;99092.60;78394;1298;3050423;-61
2023/05/27 04:30:39;;;;;;;7.60;5.20;;;;;;;19.68;77.40;99090.64;79733;1292;3011589;-64
2023/05/27 04:33:14;;;;;;;8.80;5.50;;;;;;;19.52;77.69;99084.89;78250;1297;3048487;-67
2023/05/27 04:35:43;;;;;;;10.60;6.60;;;;;;;19.42;78.05;99088.70;79581;1292;3013526;-69
2023/05/27 04:38:15;;;;;;;9.00;3.80;;;;;;;19.34;78.31;99089.58;78358;1292;3049256;-73
2023/05/27 04:40:55;;;;;;;7.00;4.40;;;;;;;19.88;76.96;99094.08;78412;1296;3052831;-66
2023/05/27 04:43:46;;;;;;;8.40;5.00;;;;;;;20.38;74.88;99089.83;78406;1297;3052986;-68
2023/05/27 04:46:14;;;;;;;13.50;5.40;;;;;;;20.45;74.62;99092.83;79591;1292;3011874;-66
2023/05/27 04:48:46;;;;;;;8.30;5.30;;;;;;;20.32;74.08;99094.52;79120;1292;3011629;-64
2023/05/27 04:51:15;;;;;;;8.40;6.00;;;;;;;20.12;74.31;99099.76;79552;1292;3013688;-67
2023/05/27 04:53:43;;;;;;;11.50;6.60;;;;;;;19.91;75.10;99101.73;78263;1297;3026594;-65
2023/05/27 04:56:14;;;;;;;11.70;6.80;;;;;;;19.78;75.70;99100.65;79615;1292;3013287;-68
2023/05/27 04:58:43;;;;;;;9.40;3.90;;;;;;;19.67;76.32;99101.20;78352;1298;3052640;-62
2023/05/27 05:01:21;;;;;;;6.70;5.10;;;;;;;20.15;75.23;99099.63;79511;1295;3013254;-66
2023/05/27 05:04:13;;;;;;;7.50;5.10;;;;;;;20.67;73.34;99094.39;78412;1296;3069548;-63
2023/05/27 05:06:48;;;;;;;15.80;6.10;;;;;;;20.66;72.71;99091.65;78335;1292;3051112;-69
2023/05/27 05:09:15;;;;;;;9.70;6.70;;;;;;;20.53;73.20;99090.44;79591;1292;3015092;-62
2023/05/27 05:11:41;;;;;;;13.30;7.20;;;;;;;20.38;73.82;99093.80;79640;1291;3012138;-68
2023/05/27 05:14:10;;;;;;;14.70;7.30;;;;;;;20.19;73.91;99093.13;78407;1296;3049590;-70
2023/05/27 05:16:37;;;;;;;13.00;7.40;;;;;;;20.09;74.40;99094.14;79692;1292;3013240;-66
2023/05/27 05:19:03;;;;;;;11.70;7.30;;;;;;;20.00;74.58;99098.02;79493;1292;3011866;-72
2023/05/27 05:21:36;;;;;;;8.10;4.20;;;;;;;19.90;75.14;99100.77;78422;1296;3051334;-71
2023/05/27 05:24:04;;;;;;;8.20;5.10;;;;;;;20.43;74.28;99095.33;79620;1298;3013331;-65
2023/05/27 05:26:33;;;;;;;15.70;6.50;;;;;;;20.91;72.32;99101.29;79204;1292;3011510;-61
2023/05/27 05:29:00;;;;;;;10.10;7.50;;;;;;;20.94;72.07;99100.31;79542;1294;3013258;-64
2023/05/27 05:31:27;;;;;;;10.00;6.90;;;;;;;20.84;72.16;99096.86;79459;1295;3011433;-67
2023/05/27 05:33:56;;;;;;;11.30;7.20;;;;;;;20.67;72.37;99097.75;78497;1294;3052802;-73
2023/05/27 05:36:23;;;;;;;17.40;7.90;;;;;;;20.39;72.63;99096.99;79518;1298;3012828;-62
2023/05/27 05:39:03;;;;;;;14.00;7.60;;;;;;;20.22;72.98;99102.71;78237;1296;3056967;-67
2023/05/27 05:41:30;;;;;;;15.40;8.10;;;;;;;20.07;73.79;99101.31;79636;1292;3013906;-65
2023/05/27 05:43:57;;;;;;;17.80;8.00;;;;;;;20.00;74.31;99102.89;79783;1298;3013845;-69
2023/05/27 05:46:25;;;;;;;8.10;4.30;;;;;;;19.95;74.81;99104.59;78333;1296;3052130;-68
2023/05/27 05:48:51;;;;;;;11.50;5.90;;;;;;;20.45;73.30;99101.23;79429;1293;3012890;-65
2023/05/27 05:51:25;;;;;;;10.80;6.20;;;;;;;20.99;71.64;99099.64;78229;1293;3052411;-67
2023/05/27 05:53:55;;;;;;;13.70;8.60;;;;;;;21.14;71.23;99104.27;79631;1298;3011852;-63
2023/05/27 05:56:25;;;;;;;14.10;7.60;;;;;;;20.97;70.69;99102.58;79046;1292;3011586;-66
2023/05/27 05:58:52;;;;;;;16.20;10.20;;;;;;;20.82;71.57;99098.33;79648;1292;3011835;-73
2023/05/27 06:01:19;;;;;;;12.00;8.90;;;;;;;20.71;71.97;99101.43;79558;1295;3011476;-67
2023/05/27 06:03:47;;;;;;;15.10;9.10;;;;;;;20.64;72.48;99099.54;78386;1295;3052683;-65
2023/05/27 06:06:26;;;;;;;13.50;8.60;;;;;;;20.56;72.82;99103.91;78314;1297;3069464;-63
2023/05/27 06:09:17;;;;;;;13.80;8.70;;;;;;;20.50;72.85;99107.91;78308;1292;3050746;-64
2023/05/27 06:11:44;;;;;;;8.80;4.80;;;;;;;20.51;73.30;99106.45;79528;1295;3013899;-69
2023/05/27 06:14:11;;;;;;;10.20;5.50;;;;;;;21.07;71.64;99104.80;79481;1291;3011516;-66
2023/05/27 06:16:39;;;;;;;11.20;6.30;;;;;;;21.63;69.58;99108.23;78303;1297;3050028;-68
2023/05/27 06:19:06;;;;;;;10.60;6.70;;;;;;;21.74;68.81;99106.16;79822;1296;3015198;-69
2023/05/27 06:21:33;;;;;;;12.50;7.50;;;;;;;21.69;68.60;99109.55;79678;1297;3013713;-63
2023/05/27 06:24:21;;;;;;;12.90;7.80;;;;;;;21.51;69.33;99110.77;78248;1298;3052205;-69
2023/05/27 06:26:53;;;;;;;15.30;9.00;;;;;;;21.34;69.87;99113.74;79676;1292;3012978;-65
2023/05/27 06:29:21;;;;;;;19.10;8.40;;;;;;;21.23;70.26;99114.25;78319;1297;3048516;-69
2023/05/27 06:31:48;;;;;;;10.50;7.40;;;;;;;21.13;70.47;99112.90;79616;1295;3018482;-64
2023/05/27 06:34:15;;;;;;;12.60;8.30;;;;;;;21.11;70.42;99113.66;79818;1292;3011659;-65
2023/05/27 06:36:43;;;;;;;16.10;8.00;;;;;;;21.07;70.68;99112.14;78366;1294;3026820;-69
2023/05/27 06:39:10;;;;;;;13.40;7.80;;;;;;;21.06;70.70;99112.39;79504;1294;3013304;-64
2023/05/27 06:41:37;;;;;;;15.30;7.70;;;;;;;21.07;70.66;99113.24;79738;1295;3014063;-64
2023/05/27 06:44:34;;;;;;;9.00;4.70;;;;;;;21.09;70.90;99110.67;78141;1295;3049377;-66
2023/05/27 06:47:10;;;;;;;9.80;5.70;;;;;;;21.88;68.50;99113.77;78423;1292;3052085;-62
2023/05/27 06:49:37;;;;;;;19.00;6.60;;;;;;;22.46;66.18;99113.34;79723;1298;3013141;-63
2023/05/27 06:52:05;;;;;;;12.30;6.10;;;;;;;22.54;65.05;99112.31;80545;1292;3011894;-67
2023/05/27 06:54:36;;;;;;;18.50;7.00;;;;;;;22.52;64.91;99114.39;80757;1292;3070278;-66
2023/05/27 06:57:24;;;;;;;8.80;6.10;;;;;;;22.38;64.98;99109.80;80859;1292;3050846;-67
2023/05/27 07:00:05;;;;;;;15.00;7.40;;;;;;;22.26;65.47;99110.75;80822;1292;3056546;-67
2023/05/27 07:02:36;;;;;;;11.60;7.00;;;;;;;22.17;66.05;99113.25;82027;1293;3011278;-63
2023/05/27 07:05:04;;;;;;;13.50;7.10;;;;;;;22.18;65.79;99108.22;80834;1293;3052428;-65
2023/05/27 07:07:30;;;;;;;10.30;6.70;;;;;;;22.21;65.68;99106.66;81434;1294;3012656;-64
2023/05/27 07:09:58;;;;;;;14.50;7.40;;;;;;;22.22;65.95;99109.43;79584;1292;3012043;-66
2023/05/27 07:12:26;;;;;;;12.50;7.80;;;;;;;22.21;66.00;99103.60;78427;1294;3027658;-63
2023/05/27 07:14:54;;;;;;;12.40;6.90;;;;;;;22.20;65.25;99103.23;79652;1292;3013601;-67
2023/05/27 07:17:24;;;;;;;11.20;7.00;;;;;;;22.20;65.50;99098.11;79045;1292;3013128;-66
2023/05/27 07:19:51;;;;;;;11.90;7.20;;;;;;;22.15;65.32;99102.13;79674;1292;3018390;-68
2023/05/27 07:22:19;;;;;;;14.30;6.20;;;;;;;22.18;65.06;99097.59;79551;1292;3011867;-67
2023/05/27 07:24:48;;;;;;;12.00;6.20;;;;;;;22.19;64.41;99101.98;78439;1292;3052144;-66
2023/05/27 07:27:15;;;;;;;13.00;6.70;;;;;;;22.16;64.49;99102.30;79631;1291;3013430;-64
2023/05/27 07:29:48;;;;;;;20.20;7.70;;;;;;;22.17;64.87;99104.98;78417;1293;3052215;-71
2023/05/27 07:32:52;;;;;;;14.90;6.90;;;;;;;22.12;65.43;99107.12;78164;1297;3056124;-65
2023/05/27 07:35:19;;;;;;;12.40;6.70;;;;;;;22.06;65.04;99104.15;79555;1291;3013755;-66
2023/05/27 07:37:46;;;;;;;12.70;6.60;;;;;;;22.03;64.85;99105.00;79600;1297;3013262;-63
2023/05/27 07:40:14;;;;;;;11.10;7.10;;;;;;;21.97;65.39;99106.55;78368;1299;3052112;-66
2023/05/27 07:42:41;;;;;;;13.90;7.30;;;;;;;21.94;65.34;99107.44;79541;1292;3014352;-63
2023/05/27 07:45:08;;;;;;;13.00;7.20;;;;;;;21.87;65.45;99108.53;79565;1295;3013153;-66
2023/05/27 07:47:37;;;;;;;13.60;6.80;;;;;;;21.90;65.42;99109.83;78466;1297;3056559;-70
2023/05/27 07:50:05;;;;;;;12.60;7.50;;;;;;;21.92;65.70;99109.85;79526;1292;3013698;-65
2023/05/27 07:52:40;;;;;;;15.20;8.00;;;;;;;21.94;65.95;99109.61;78142;1298;3051770;-70
2023/05/27 07:55:19;;;;;;;14.50;8.50;;;;;;;21.97;65.68;99113.63;78329;1298;3053339;-66
2023/05/27 07:57:46;;;;;;;16.60;9.40;;;;;;;21.92;65.38;99111.75;79603;1298;3013738;-64
2023/05/27 08:00:13;;;;;;;17.30;9.40;;;;;;;21.79;65.73;99116.46;79481;1292;3011842;-66
2023/05/27 08:02:54;;;;;;;15.30;9.70;;;;;;;21.86;66.11;99113.90;78341;1296;3057015;-64
2023/05/27 08:05:54;;;;;;;18.80;11.10;;;;;;;21.85;66.75;99114.19;78321;1296;3050052;-61
2023/05/27 08:08:37;;;;;;;18.30;11.20;;;;;;;21.86;66.94;99115.73;78249;1297;3053216;-66
2023/05/27 08:11:32;;;;;;;19.70;10.80;;;;;;;21.78;67.04;99119.98;78183;1298;3051311;-66
2023/05/27 08:14:20;;;;;;;21.50;10.30;;;;;;;21.74;67.11;99117.18;78298;1298;3053227;-68
2023/05/27 08:17:07;;;;;;;18.40;11.50;;;;;;;21.70;67.13;99116.91;78355;1297;3053506;-64
2023/05/27 08:19:54;;;;;;;22.40;9.80;;;;;;;21.66;67.66;99115.02;78409;1292;3069986;-66
2023/05/27 08:22:32;;;;;;;21.50;11.50;;;;;;;21.63;67.61;99116.31;78435;1297;3051454;-63
2023/05/27 08:24:59;;;;;;;15.70;9.40;;;;;;;21.60;67.83;99117.02;79662;1297;3013447;-65
2023/05/27 08:27:53;;;;;;;17.20;9.90;;;;;;;21.68;67.66;99115.41;78350;1295;3053266;-67
2023/05/27 08:30:32;;;;;;;16.90;10.60;;;;;;;21.64;68.10;99120.67;78305;1298;3050702;-67
2023/05/27 08:33:26;;;;;;;14.20;9.20;;;;;;;21.66;67.64;99117.19;78342;1296;3053568;-64
2023/05/27 08:35:53;;;;;;;13.20;9.70;;;;;;;21.71;67.39;99113.79;79582;1296;3012859;-63
2023/05/27 08:38:20;;;;;;;16.30;9.00;;;;;;;21.73;67.06;99117.23;79609;1292;3011692;-66
2023/05/27 08:40:48;;;;;;;16.00;9.40;;;;;;;21.79;66.92;99112.22;78409;1296;3026863;-68
2023/05/27 08:43:16;;;;;;;13.40;8.60;;;;;;;21.87;67.38;99110.71;79627;1292;3013173;-64
2023/05/27 08:45:48;;;;;;;12.80;8.70;;;;;;;21.89;67.51;99106.39;79165;1292;3011669;-68
2023/05/27 08:48:14;;;;;;;18.80;9.70;;;;;;;21.91;67.54;99109.62;79648;1295;3013109;-64
2023/05/27 08:50:44;;;;;;;14.00;9.80;;;;;;;22.05;67.37;99105.80;79518;1295;3013090;-68
2023/05/27 08:53:12;;;;;;;13.30;9.40;;;;;;;22.27;66.33;99099.58;78340;1293;3069284;-64
2023/05/27 08:55:39;;;;;;;13.70;8.90;;;;;;;22.43;65.72;99102.43;79655;1291;3013783;-67
2023/05/27 08:58:10;;;;;;;10.20;8.50;;;;;;;22.54;64.93;99101.48;79044;1292;3011829;-64
2023/05/27 09:00:41;;;;;;;11.00;7.80;;;;;;;22.64;64.82;99100.16;79543;1292;3011613;-61
2023/05/27 09:03:21;;;;;;;14.40;9.10;;;;;;;22.71;64.49;99100.40;78470;1297;3053957;-68
2023/05/27 09:05:48;;;;;;;12.70;8.50;;;;;;;22.72;64.66;99102.08;79629;1298;3013647;-65
2023/05/27 09:08:15;;;;;;;12.70;8.80;;;;;;;22.75;64.45;99103.65;79848;1297;3011549;-70
2023/05/27 09:10:43;;;;;;;18.30;9.30;;;;;;;22.84;64.08;99096.61;78431;1298;3068227;-71
2023/05/27 09:13:10;;;;;;;13.20;9.10;;;;;;;22.91;63.91;99091.05;79565;1294;3019131;-67
2023/05/27 09:15:36;;;;;;;13.20;9.50;;;;;;;22.96;63.92;99091.00;79494;1292;3013253;-63
2023/05/27 09:18:06;;;;;;;15.70;9.60;;;;;;;23.04;62.93;99088.32;78477;1292;3053430;-67
2023/05/27 09:20:32;;;;;;;14.10;9.30;;;;;;;23.06;62.42;99083.74;79580;1296;3019029;-70
2023/05/27 09:23:03;;;;;;;14.00;8.40;;;;;;;23.18;62.37;99079.65;79564;1298;3012983;-66
2023/05/27 09:25:32;;;;;;;11.90;8.60;;;;;;;23.27;61.90;99071.41;78379;1298;3068168;-68
2023/05/27 09:27:58;;;;;;;14.60;8.90;;;;;;;23.18;62.20;99071.01;79527;1292;3013722;-66
2023/05/27 09:30:26;;;;;;;14.60;9.60;;;;;;;23.12;62.23;99069.27;79478;1292;3011823;-65
2023/05/27 09:33:02;;;;;;;11.60;8.10;;;;;;;23.14;62.11;99068.16;78277;1298;3054967;-65
2023/05/27 09:35:30;;;;;;;11.60;7.60;;;;;;;23.13;62.10;99069.00;78247;1297;3050064;-66
2023/05/27 09:38:07;;;;;;;10.70;6.70;;;;;;;23.23;62.47;99075.18;79585;1298;3013591;-64
2023/05/27 09:40:36;;;;;;;11.20;7.70;;;;;;;23.40;62.39;99074.24;78379;1297;3068150;-66
2023/05/27 09:43:03;;;;;;;10.20;6.90;;;;;;;23.53;61.57;99073.14;79687;1292;3012796;-63
2023/05/27 09:45:29;;;;;;;11.10;6.70;;;;;;;23.58;61.23;99068.42;79664;1295;3012211;-66
2023/05/27 09:47:57;;;;;;;9.80;7.00;;;;;;;23.51;61.17;99064.30;78290;1295;3053470;-62
2023/05/27 09:50:24;;;;;;;9.10;7.20;;;;;;;23.46;61.39;99057.17;79677;1298;3013018;-64
2023/05/27 09:52:51;;;;;;;9.30;7.20;;;;;;;23.51;61.84;99051.42;79625;1297;3011484;-68
2023/05/27 09:55:19;;;;;;;13.00;8.40;;;;;;;23.33;61.77;99045.70;78450;1297;3025947;-66
2023/05/27 09:57:45;;;;;;;11.20;8.00;;;;;;;23.14;62.15;99048.22;79676;1295;3013125;-67
2023/05/27 10:00:12;;;;;;;11.00;7.50;;;;;;;23.20;62.50;99049.13;79379;1292;3012023;-67
2023/05/27 10:02:48;;;;;;;7.80;6.30;;;;;;;23.19;62.56;99048.29;78575;1292;3053112;-67
2023/05/27 10:05:19;;;;;;;11.30;7.10;;;;;;;23.19;62.73;99041.94;79165;1292;3013242;-67
2023/05/27 10:07:46;;;;;;;10.60;7.70;;;;;;;23.12;62.91;99040.73;79732;1292;3012945;-65
2023/05/27 10:10:17;;;;;;;12.00;8.10;;;;;;;23.10;63.44;99030.98;79128;1292;3012099;-64
2023/05/27 10:12:46;;;;;;;12.10;7.40;;;;;;;22.99;63.66;99037.13;79685;1297;3011593;-66
2023/05/27 10:15:25;;;;;;;12.80;7.40;;;;;;;22.95;63.81;99039.17;78317;1298;3028628;-66
2023/05/27 10:17:55;;;;;;;10.90;8.20;;;;;;;22.83;64.28;99038.48;78421;1298;3051689;-66
2023/05/27 10:20:34;;;;;;;17.10;8.80;;;;;;;22.70;64.90;99033.20;79742;1291;3012978;-65
2023/05/27 10:23:13;;;;;;;13.20;8.60;;;;;;;22.52;65.65;99030.35;78319;1297;3049305;-68
2023/05/27 10:25:48;;;;;;;9.20;7.80;;;;;;;22.52;66.03;99031.77;78446;1292;3052965;-69
2023/05/27 10:28:35;;;;;;;10.70;8.30;;;;;;;22.54;65.91;99034.02;79073;1293;3011678;-69
2023/05/27 10:31:04;;;;;;;11.30;8.40;;;;;;;22.52;65.93;99030.34;78346;1297;3050855;-67
2023/05/27 10:33:34;;;;;;;10.90;8.50;;;;;;;22.55;66.13;99031.98;79544;1295;3013182;-67
2023/05/27 10:36:09;;;;;;;13.70;9.00;;;;;;;22.50;66.39;99027.93;78482;1297;3052657;-68
2023/05/27 10:38:39;;;;;;;11.40;8.90;;;;;;;22.50;66.33;99028.45;79041;1298;3011468;-60
2023/05/27 10:41:06;;;;;;;12.30;9.20;;;;;;;22.50;66.67;99032.16;79705;1298;3013681;-64
2023/05/27 10:43:33;;;;;;;12.40;9.30;;;;;;;22.48;66.54;99033.98;79844;1292;3013201;-64
2023/05/27 10:46:13;;;;;;;13.70;9.90;;;;;;;22.48;66.88;99030.09;78349;1298;3049111;-65
2023/05/27 10:48:45;;;;;;;16.50;10.50;;;;;;;22.43;67.66;99034.55;78549;1293;3053833;-68
2023/05/27 10:51:11;;;;;;;17.30;11.10;;;;;;;22.43;67.95;99032.20;79590;1298;3012502;-68
2023/05/27 10:53:38;;;;;;;17.10;11.10;;;;;;;22.41;68.15;99030.56;79440;1298;3011869;-62
2023/05/27 10:56:08;;;;;;;17.40;11.00;;;;;;;22.39;68.16;99030.08;78531;1292;3068359;-67
2023/05/27 10:58:36;;;;;;;15.80;11.20;;;;;;;22.37;68.49;99031.00;79703;1292;3012971;-67
2023/05/27 11:01:13;;;;;;;13.30;8.10;;;;;;;22.38;68.47;99033.52;78959;1298;3012189;-73
2023/05/27 11:03:44;;;;;;;15.30;9.90;;;;;;;23.02;67.46;99034.07;78700;1297;3049694;-65
2023/05/27 11:06:12;;;;;;;17.30;10.30;;;;;;;23.57;65.36;99033.17;79613;1294;3012846;-65
2023/05/27 11:09:53;;;;;;;19.40;11.00;;;;;;;23.75;64.60;99035.45;80431;1302;3011601;-65
2023/05/27 11:12:21;;;;;;;20.70;12.90;;;;;;;23.58;64.97;99035.83;79318;1302;3015008;-65
2023/05/27 11:14:52;;;;;;;18.10;12.10;;;;;;;23.57;65.34;99036.44;81137;1304;3011216;-66
2023/05/27 11:17:19;;;;;;;22.90;13.90;;;;;;;23.47;65.64;99056.94;81501;1305;3012789;-66
2023/05/27 11:19:49;;;;;;;10.50;6.70;;;;;;;23.19;64.71;99062.62;81179;1302;3011425;-64
2023/05/27 11:22:16;;;;;;;6.80;3.40;;;;;;;22.74;58.92;99060.98;79845;1301;3012564;-67
2023/05/27 11:24:43;;;;;;;4.80;2.70;;;;;;;22.33;57.73;99057.88;79444;1305;3011757;-65
2023/05/27 11:27:12;;;;;;;7.70;2.20;;;;;;;21.80;58.09;99069.92;78115;1299;3048119;-64